Time;durP1;ratioP1;P1;durP2;ratioP2;P2;SDS_P1;SDS_P2;PMS_P1;PMS_P2;Temp;Humidity;BMP_temperature;BMP_pressure;BME280_temperature;BME280_humidity;BME280_pressure;Samples;Min_cycle;Max_cycle;Signal;HPM_P1;HPM_P2
2023/05/11 00:00:14;;;;;;;;;;;;;;;7.35;64.12;102315.09;5075090;28;19959;-67
2023/05/11 00:02:39;;;;;;;;;;;;;;;7.33;63.36;102317.00;5075042;28;20424;-65
2023/05/11 00:05:08;;;;;;;;;;;;;;;7.31;63.76;102318.91;5074654;28;19919;-66
2023/05/11 00:07:33;;;;;;;;;;;;;;;7.29;64.34;102319.97;5074469;28;19913;-67
2023/05/11 00:09:58;;;;;;;;;;;;;;;7.27;63.92;102320.06;5074442;28;19927;-65
2023/05/11 00:12:24;;;;;;;;;;;;;;;7.23;64.09;102321.22;5073209;28;19919;-66
2023/05/11 00:14:49;;;;;;;;;;;;;;;7.20;64.36;102316.09;5074848;28;19912;-65
2023/05/11 00:17:15;;;;;;;;;;;;;;;7.19;65.37;102321.50;5074555;28;19939;-66
2023/05/11 00:19:40;;;;;;;;;;;;;;;7.18;65.78;102325.09;5074471;28;19970;-66
2023/05/11 00:22:06;;;;;;;;;;;;;;;7.17;66.04;102320.75;5075091;28;19966;-66
2023/05/11 00:24:31;;;;;;;;;;;;;;;7.16;66.53;102330.50;5074746;28;19912;-67
2023/05/11 00:26:56;;;;;;;;;;;;;;;7.15;66.47;102319.06;5074320;28;19997;-68
2023/05/11 00:29:22;;;;;;;;;;;;;;;7.14;66.56;102327.97;5074668;28;19916;-65
2023/05/11 00:31:47;;;;;;;;;;;;;;;7.13;67.01;102331.56;5074337;28;19963;-65
2023/05/11 00:34:13;;;;;;;;;;;;;;;7.13;66.52;102320.97;5074034;28;19912;-66
2023/05/11 00:36:39;;;;;;;;;;;;;;;7.12;66.89;102321.06;5074153;28;20015;-66
2023/05/11 00:39:04;;;;;;;;;;;;;;;7.09;69.71;102327.44;5074085;28;20013;-65
2023/05/11 00:41:30;;;;;;;;;;;;;;;7.08;68.47;102330.19;5074133;28;20046;-69
2023/05/11 00:43:55;;;;;;;;;;;;;;;7.07;68.74;102325.84;5072942;28;19919;-65
2023/05/11 00:46:21;;;;;;;;;;;;;;;7.06;68.97;102335.59;5073969;28;19912;-66
2023/05/11 00:48:46;;;;;;;;;;;;;;;7.06;68.36;102335.59;5073906;28;19916;-66
2023/05/11 00:51:12;;;;;;;;;;;;;;;7.04;68.51;102334.00;5073730;28;19999;-63
2023/05/11 00:53:37;;;;;;;;;;;;;;;7.00;69.88;102341.28;5073897;28;19956;-65
2023/05/11 00:56:03;;;;;;;;;;;;;;;6.98;71.00;102337.91;5073860;28;19919;-66
2023/05/11 00:58:29;;;;;;;;;;;;;;;6.96;72.96;102346.91;5073620;28;19912;-65
2023/05/11 01:00:54;;;;;;;;;;;;;;;6.94;74.75;102349.66;5073751;28;19957;-66
2023/05/11 01:03:20;;;;;;;;;;;;;;;6.95;76.72;102342.56;5073618;28;19913;-66
2023/05/11 01:06:07;;;;;;;;;;;;;;;6.97;75.68;102352.09;5073393;28;19966;-65
2023/05/11 01:08:38;;;;;;;;;;;;;;;6.99;77.78;102352.00;5073521;28;19912;-65
2023/05/11 01:11:04;;;;;;;;;;;;;;;6.99;81.76;102352.84;5073465;28;19916;-65
2023/05/11 01:13:32;;;;;;;;;;;;;;;7.01;83.17;102337.69;5072930;28;20046;-66
2023/05/11 01:16:01;;;;;;;;;;;;;;;7.04;83.13;102353.38;5073255;28;19920;-65
2023/05/11 01:18:27;;;;;;;;;;;;;;;7.04;81.24;102352.53;5073052;28;19945;-63
2023/05/11 01:20:55;;;;;;;;;;;;;;;7.03;80.03;102354.34;5073123;28;19912;-65
2023/05/11 01:23:38;;;;;;;;;;;;;;;7.03;84.34;102350.84;5073138;28;19912;-65
2023/05/11 01:26:21;;;;;;;;;;;;;;;7.06;85.68;102355.94;5073320;28;19970;-65
2023/05/11 01:29:05;;;;;;;;;;;;;;;7.07;83.91;102355.81;5072974;28;19917;-65
2023/05/11 01:31:32;;;;;;;;;;;;;;;7.06;87.10;102350.63;5072933;28;19913;-66
2023/05/11 01:34:01;;;;;;;;;;;;;;;7.06;86.31;102355.94;5073109;28;19919;-65
2023/05/11 01:36:33;;;;;;;;;;;;;;;7.03;84.87;102349.03;5071771;28;19916;-66
2023/05/11 01:39:02;;;;;;;;;;;;;;;7.02;84.77;102355.28;5073037;28;19913;-65
2023/05/11 01:41:28;;;;;;;;;;;;;;;7.02;85.46;102352.63;5072698;28;20295;-66
2023/05/11 01:43:57;;;;;;;;;;;;;;;7.01;84.27;102353.59;5072859;28;19958;-67
2023/05/11 01:46:23;;;;;;;;;;;;;;;7.02;86.07;102357.94;5072913;28;19935;-64
2023/05/11 01:48:50;;;;;;;;;;;;;;;7.02;91.94;102349.13;5071265;28;19917;-65
2023/05/11 01:51:17;;;;;;;;;;;;;;;7.07;89.17;102355.81;5072638;28;19923;-65
2023/05/11 01:53:43;;;;;;;;;;;;;;;7.10;92.51;102352.13;5072257;28;20007;-66
2023/05/11 01:56:10;;;;;;;;;;;;;;;7.14;92.43;102358.91;5072491;28;19919;-66
2023/05/11 01:58:36;;;;;;;;;;;;;;;7.18;92.48;102354.25;5072387;28;20344;-66
2023/05/11 02:01:02;;;;;;;;;;;;;;;7.20;90.48;102357.66;5072824;28;19963;-65
2023/05/11 02:03:29;;;;;;;;;;;;;;;7.23;90.79;102353.03;5072602;28;19920;-65
2023/05/11 02:05:56;;;;;;;;;;;;;;;7.27;91.62;102358.97;5072370;28;19920;-66
2023/05/11 02:08:22;;;;;;;;;;;;;;;7.31;91.59;102356.00;5072519;28;20003;-66
2023/05/11 02:10:49;;;;;;;;;;;;;;;7.35;92.42;102359.28;5072478;28;20001;-65
2023/05/11 02:13:16;;;;;;;;;;;;;;;7.39;92.25;102358.13;5072362;28;19919;-66
2023/05/11 02:15:42;;;;;;;;;;;;;;;7.44;92.32;102366.63;5072571;28;19920;-66
2023/05/11 02:18:10;;;;;;;;;;;;;;;7.48;92.88;102360.16;5072332;28;19913;-65
2023/05/11 02:20:38;;;;;;;;;;;;;;;7.52;92.61;102358.13;5072473;28;19943;-65
2023/05/11 02:23:04;;;;;;;;;;;;;;;7.59;91.38;102362.09;5072363;28;20019;-64
2023/05/11 02:25:30;;;;;;;;;;;;;;;7.66;90.06;102366.03;5072151;28;20267;-65
2023/05/11 02:27:55;;;;;;;;;;;;;;;7.74;88.49;102366.34;5072161;28;20428;-67
2023/05/11 02:30:21;;;;;;;;;;;;;;;7.82;87.57;102365.84;5072297;28;20018;-66
2023/05/11 02:32:49;;;;;;;;;;;;;;;7.89;88.86;102356.50;5072322;28;19951;-65
2023/05/11 02:35:17;;;;;;;;;;;;;;;7.95;88.89;102362.22;5072216;28;19913;-65
2023/05/11 02:37:45;;;;;;;;;;;;;;;8.02;87.40;102355.50;5072074;28;20376;-65
2023/05/11 02:40:16;;;;;;;;;;;;;;;8.12;87.19;102363.72;5072195;28;19912;-65
2023/05/11 02:42:42;;;;;;;;;;;;;;;8.19;88.03;102362.31;5072079;28;19999;-65
2023/05/11 02:45:08;;;;;;;;;;;;;;;8.26;87.12;102366.22;5071984;28;20364;-65
2023/05/11 02:47:38;;;;;;;;;;;;;;;8.34;86.06;102360.38;5072203;28;19959;-67
2023/05/11 02:50:04;;;;;;;;;;;;;;;8.43;84.03;102364.22;5072244;28;19917;-70
2023/05/11 02:52:31;;;;;;;;;;;;;;;8.52;84.56;102371.53;5071993;28;19931;-69
2023/05/11 02:54:58;;;;;;;;;;;;;;;8.61;84.71;102370.84;5072098;28;20280;-65
2023/05/11 02:57:24;;;;;;;;;;;;;;;8.72;84.72;102370.09;5072018;28;19912;-65
2023/05/11 02:59:50;;;;;;;;;;;;;;;8.82;84.00;102369.28;5071804;28;19920;-65
2023/05/11 03:02:15;;;;;;;;;;;;;;;8.94;83.32;102363.06;5071823;28;19973;-66
2023/05/11 03:04:41;;;;;;;;;;;;;;;9.12;83.75;102373.31;5070465;28;19916;-63
2023/05/11 03:07:06;;;;;;;;;;;;;;;9.32;82.30;102365.56;5073742;28;19959;-66
2023/05/11 03:09:32;;;;;;;;;;;;;;;9.80;81.40;102373.41;5076045;28;19922;-66
2023/05/11 03:11:58;;;;;;;;;;;;;;;10.43;79.89;102365.88;5075825;28;19912;-65
2023/05/11 03:14:24;;;;;;;;;;;;;;;10.93;78.29;102368.91;5075546;28;19918;-65
2023/05/11 03:16:49;;;;;;;;;;;;;;;11.31;76.39;102376.41;5075494;28;19959;-65
2023/05/11 03:19:15;;;;;;;;;;;;;;;11.67;75.49;102372.47;5074157;28;19970;-65
2023/05/11 03:21:41;;;;;;;;;;;;;;;12.16;73.92;102379.81;5075329;28;20015;-65
2023/05/11 03:24:07;;;;;;;;;;;;;;;12.79;72.14;102379.59;5075475;28;19912;-66
2023/05/11 03:26:33;;;;;;;;;;;;;;;13.58;69.18;102375.81;5075465;28;19977;-66
2023/05/11 03:28:59;;;;;;;;;;;;;;;14.57;66.18;102379.78;5075316;28;19913;-66
2023/05/11 03:31:24;;;;;;;;;;;;;;;15.21;59.64;102379.78;5075208;28;20022;-67
2023/05/11 03:33:50;;;;;;;;;;;;;;;15.44;57.08;102376.47;5075170;28;19989;-64
2023/05/11 03:36:16;;;;;;;;;;;;;;;15.48;56.97;102377.00;5075192;28;19913;-66
2023/05/11 03:38:43;;;;;;;;;;;;;;;15.14;56.80;102383.06;5075025;28;20046;-66
2023/05/11 03:41:12;;;;;;;;;;;;;;;14.51;56.92;102380.38;5075182;28;19912;-65
2023/05/11 03:43:39;;;;;;;;;;;;;;;14.00;57.66;102380.00;5074947;28;19955;-65
2023/05/11 03:46:05;;;;;;;;;;;;;;;13.60;59.61;102378.38;5075048;28;19954;-65
2023/05/11 03:48:31;;;;;;;;;;;;;;;13.45;60.37;102377.13;5074568;28;19956;-66
2023/05/11 03:50:56;;;;;;;;;;;;;;;13.38;59.84;102384.03;5075089;28;19923;-66
2023/05/11 03:53:22;;;;;;;;;;;;;;;13.59;58.58;102390.09;5073805;28;20472;-66
2023/05/11 03:55:48;;;;;;;;;;;;;;;13.44;57.08;102381.63;5074919;28;19913;-64
2023/05/11 03:58:14;;;;;;;;;;;;;;;13.25;56.89;102382.47;5074992;28;20356;-66
2023/05/11 04:00:40;;;;;;;;;;;;;;;13.13;56.27;102388.94;5074687;28;19912;-65
2023/05/11 04:03:06;;;;;;;;;;;;;;;13.10;56.08;102386.53;5074576;28;19916;-65
2023/05/11 04:05:31;;;;;;;;;;;;;;;13.18;55.15;102384.03;5074615;28;19912;-64
2023/05/11 04:07:57;;;;;;;;;;;;;;;13.46;53.99;102390.38;5074716;28;20020;-65
2023/05/11 04:10:22;;;;;;;;;;;;;;;14.07;52.72;102384.59;5074349;28;20241;-69
2023/05/11 04:12:48;;;;;;;;;;;;;;;14.81;50.63;102383.75;5073497;28;19942;-67
2023/05/11 04:15:13;;;;;;;;;;;;;;;15.47;48.31;102386.91;5074427;28;19912;-66
2023/05/11 04:17:38;;;;;;;;;;;;;;;15.74;46.54;102385.97;5074231;28;20288;-67
2023/05/11 04:20:04;;;;;;;;;;;;;;;15.40;45.83;102379.63;5074395;28;20299;-66
2023/05/11 04:22:29;;;;;;;;;;;;;;;14.76;45.20;102386.88;5074422;28;19912;-67
2023/05/11 04:24:55;;;;;;;;;;;;;;;14.18;46.34;102378.25;5074092;28;19958;-68
2023/05/11 04:27:20;;;;;;;;;;;;;;;13.78;47.54;102379.31;5074374;28;19912;-69
2023/05/11 04:29:45;;;;;;;;;;;;;;;13.70;48.54;102381.88;5074797;28;19912;-69
2023/05/11 04:32:10;;;;;;;;;;;;;;;14.14;48.57;102379.50;5074762;28;19986;-69
2023/05/11 04:34:36;;;;;;;;;;;;;;;14.91;42.98;102376.47;5073944;28;19913;-68
2023/05/11 04:37:06;;;;;;;;;;;;;;;15.27;44.09;102380.00;5074664;28;19912;-67
2023/05/11 04:39:31;;;;;;;;;;;;;;;15.12;44.06;102377.03;5074132;28;19916;-69
2023/05/11 04:41:58;;;;;;;;;;;;;;;14.85;41.52;102375.22;5074219;28;19912;-66
2023/05/11 04:44:23;;;;;;;;;;;;;;;14.80;43.57;102379.38;5073967;28;19916;-69
2023/05/11 04:46:52;;;;;;;;;;;;;;;15.28;40.65;102378.16;5073242;28;19913;-69
2023/05/11 04:49:17;;;;;;;;;;;;;;;15.80;37.94;102377.25;5073178;28;19917;-68
2023/05/11 04:51:43;;;;;;;;;;;;;;;16.21;37.63;102390.13;5073400;28;19917;-67
2023/05/11 04:54:09;;;;;;;;;;;;;;;16.50;37.64;102385.22;5073640;28;19913;-65
2023/05/11 04:56:39;;;;;;;;;;;;;;;16.55;36.10;102376.66;5073731;28;20283;-66
2023/05/11 04:59:04;;;;;;;;;;;;;;;16.55;35.56;102382.88;5073504;28;20206;-67
2023/05/11 05:01:30;;;;;;;;;;;;;;;16.67;36.65;102380.75;5073099;28;20328;-67
2023/05/11 05:03:55;;;;;;;;;;;;;;;16.77;37.54;102386.88;5073586;28;19966;-67
2023/05/11 05:06:20;;;;;;;;;;;;;;;16.59;34.16;102384.25;5073326;28;20377;-66
2023/05/11 05:08:45;;;;;;;;;;;;;;;15.90;37.33;102377.19;5073429;28;19912;-66
2023/05/11 05:11:11;;;;;;;;;;;;;;;15.14;37.51;102377.72;5073446;28;19912;-66
2023/05/11 05:13:36;;;;;;;;;;;;;;;14.62;38.69;102379.31;5073420;28;19916;-67
2023/05/11 05:16:02;;;;;;;;;;;;;;;14.23;38.68;102374.13;5073478;28;20002;-67
2023/05/11 05:18:27;;;;;;;;;;;;;;;13.95;39.14;102380.44;5072984;28;19912;-67
2023/05/11 05:20:52;;;;;;;;;;;;;;;13.71;39.58;102375.53;5072802;28;19973;-66
2023/05/11 05:23:18;;;;;;;;;;;;;;;13.48;41.21;102375.00;5073300;28;19916;-67
2023/05/11 05:25:43;;;;;;;;;;;;;;;13.22;40.23;102381.91;5073030;28;19966;-66
2023/05/11 05:28:08;;;;;;;;;;;;;;;13.15;40.81;102381.59;5073218;28;20021;-67
2023/05/11 05:30:35;;;;;;;;;;;;;;;13.07;41.48;102373.44;5071984;28;19912;-69
2023/05/11 05:33:01;;;;;;;;;;;;;;;13.02;42.66;102378.38;5072884;28;19924;-66
2023/05/11 05:35:26;;;;;;;;;;;;;;;12.97;42.66;102372.56;5072974;28;19912;-65
2023/05/11 05:37:52;;;;;;;;;;;;;;;12.92;42.52;102378.34;5072411;28;19923;-66
2023/05/11 05:40:17;;;;;;;;;;;;;;;12.88;43.22;102384.94;5072613;28;20379;-66
2023/05/11 05:42:42;;;;;;;;;;;;;;;12.95;43.64;102386.06;5072694;28;20241;-66
2023/05/11 05:45:08;;;;;;;;;;;;;;;12.90;43.76;102384.81;5071191;28;20011;-66
2023/05/11 05:47:33;;;;;;;;;;;;;;;12.99;44.08;102386.63;5072159;28;20007;-65
2023/05/11 05:49:59;;;;;;;;;;;;;;;13.07;44.03;102378.78;5072694;28;19962;-66
2023/05/11 05:52:24;;;;;;;;;;;;;;;13.13;44.04;102386.25;5072542;28;19916;-65
2023/05/11 05:54:50;;;;;;;;;;;;;;;13.20;43.74;102384.72;5072577;28;20313;-66
2023/05/11 05:57:15;;;;;;;;;;;;;;;13.19;43.58;102385.72;5072468;28;20393;-66
2023/05/11 05:59:40;;;;;;;;;;;;;;;13.16;41.54;102391.31;5071643;28;20240;-67
2023/05/11 06:02:06;;;;;;;;;;;;;;;13.11;42.23;102385.53;5070729;28;19912;-68
2023/05/11 06:04:31;;;;;;;;;;;;;;;13.10;42.61;102393.72;5071075;28;19919;-67
2023/05/11 06:06:57;;;;;;;;;;;;;;;13.10;42.95;102391.03;5070740;28;19960;-66
2023/05/11 06:09:22;;;;;;;;;;;;;;;13.15;43.25;102381.59;5070930;28;19924;-66
2023/05/11 06:11:48;;;;;;;;;;;;;;;13.13;42.59;102393.44;5070858;28;20414;-66
2023/05/11 06:14:13;;;;;;;;;;;;;;;13.17;43.11;102386.81;5071620;28;19944;-65
2023/05/11 06:16:38;;;;;;;;;;;;;;;13.17;43.54;102384.13;5072288;28;19928;-66
2023/05/11 06:19:04;;;;;;;;;;;;;;;13.17;43.68;102395.72;5072163;28;20368;-66
2023/05/11 06:21:31;;;;;;;;;;;;;;;13.19;45.75;102390.22;5070861;28;20479;-66
2023/05/11 06:23:57;;;;;;;;;;;;;;;13.24;45.39;102398.66;5072320;28;19952;-65
2023/05/11 06:26:23;;;;;;;;;;;;;;;13.10;45.92;102399.91;5072194;28;19943;-66
2023/05/11 06:28:49;;;;;;;;;;;;;;;13.03;46.73;102406.81;5072151;28;20007;-67
2023/05/11 06:31:14;;;;;;;;;;;;;;;13.05;46.79;102407.50;5071766;28;20019;-68
2023/05/11 06:33:40;;;;;;;;;;;;;;;13.02;47.52;102402.44;5072053;28;19919;-66
2023/05/11 06:36:06;;;;;;;;;;;;;;;13.01;47.32;102400.75;5072451;28;20356;-65
2023/05/11 06:38:31;;;;;;;;;;;;;;;13.09;48.86;102408.06;5071939;28;19913;-67
2023/05/11 06:40:56;;;;;;;;;;;;;;;13.12;49.72;102411.31;5072412;28;20015;-67
2023/05/11 06:43:22;;;;;;;;;;;;;;;13.20;49.21;102418.66;5076242;28;19917;-67
2023/05/11 06:45:47;;;;;;;;;;;;;;;13.10;50.45;102409.75;5076115;28;19912;-67
2023/05/11 06:48:13;;;;;;;;;;;;;;;13.05;50.78;102412.84;5075937;28;20333;-66
2023/05/11 06:50:38;;;;;;;;;;;;;;;13.02;52.30;102423.84;5076118;28;19923;-66
2023/05/11 06:53:04;;;;;;;;;;;;;;;13.01;52.89;102417.63;5075975;28;19963;-67
2023/05/11 06:55:29;;;;;;;;;;;;;;;13.09;53.46;102419.63;5075957;28;20007;-66
2023/05/11 06:57:54;;;;;;;;;;;;;;;13.31;53.08;102422.06;5075771;28;20371;-65
2023/05/11 07:00:20;;;;;;;;;;;;;;;13.54;52.12;102419.09;5075805;28;19991;-69
2023/05/11 07:02:46;;;;;;;;;;;;;;;13.72;54.21;102425.44;5075818;28;19912;-67
2023/05/11 07:05:11;;;;;;;;;;;;;;;13.72;53.72;102417.41;5074589;28;19920;-67
2023/05/11 07:07:37;;;;;;;;;;;;;;;13.70;52.40;102424.72;5075870;28;20245;-66
2023/05/11 07:10:02;;;;;;;;;;;;;;;13.73;51.97;102424.44;5076005;28;20011;-66
2023/05/11 07:12:29;;;;;;;;;;;;;;;13.81;52.51;102429.91;5075631;28;19966;-67
2023/05/11 07:14:54;;;;;;;;;;;;;;;13.70;53.86;102429.25;5075377;28;19920;-66
2023/05/11 07:17:20;;;;;;;;;;;;;;;13.68;53.75;102432.06;5075280;28;19913;-66
2023/05/11 07:19:45;;;;;;;;;;;;;;;13.67;52.14;102427.69;5075567;28;19919;-67
2023/05/11 07:22:10;;;;;;;;;;;;;;;13.53;52.10;102428.09;5075585;28;19916;-70
2023/05/11 07:24:39;;;;;;;;;;;;;;;13.47;52.44;102426.84;5075815;28;19920;-70
2023/05/11 07:27:11;;;;;;;;;;;;;;;13.41;52.92;102437.28;5075389;28;19920;-67
2023/05/11 07:29:37;;;;;;;;;;;;;;;13.32;53.05;102437.13;5075587;28;19919;-68
2023/05/11 07:32:02;;;;;;;;;;;;;;;13.32;55.00;102431.78;5075354;28;19916;-66
2023/05/11 07:34:27;;;;;;;;;;;;;;;13.42;54.97;102425.59;5075031;28;20233;-68
2023/05/11 07:36:53;;;;;;;;;;;;;;;13.35;58.42;102424.47;5075155;28;19913;-70
2023/05/11 07:39:18;;;;;;;;;;;;;;;13.25;58.71;102422.59;5075111;28;20049;-68
2023/05/11 07:41:44;;;;;;;;;;;;;;;13.24;60.91;102439.66;5074837;28;19912;-68
2023/05/11 07:44:09;;;;;;;;;;;;;;;13.24;61.97;102428.09;5074723;28;19928;-68
2023/05/11 07:46:35;;;;;;;;;;;;;;;13.20;62.15;102427.53;5074753;28;19913;-67
2023/05/11 07:49:00;;;;;;;;;;;;;;;13.14;61.40;102421.88;5074778;28;19920;-66
2023/05/11 07:51:26;;;;;;;;;;;;;;;13.21;60.39;102423.03;5075017;28;20245;-67
2023/05/11 07:53:51;;;;;;;;;;;;;;;13.30;58.13;102423.06;5074315;28;20484;-68
2023/05/11 07:56:17;;;;;;;;;;;;;;;13.40;56.35;102412.34;5074739;28;20348;-67
2023/05/11 07:58:42;;;;;;;;;;;;;;;13.52;53.81;102421.06;5074567;28;19916;-67
2023/05/11 08:01:08;;;;;;;;;;;;;;;13.49;50.28;102416.00;5075015;28;19917;-68
2023/05/11 08:03:33;;;;;;;;;;;;;;;13.57;47.68;102408.09;5074747;28;19912;-68
2023/05/11 08:05:58;;;;;;;;;;;;;;;13.70;47.07;102414.03;5074477;28;20264;-69
2023/05/11 08:08:24;;;;;;;;;;;;;;;13.80;46.51;102408.63;5074497;28;19967;-67
2023/05/11 08:10:50;;;;;;;;;;;;;;;13.86;45.93;102414.25;5074509;28;19932;-67
2023/05/11 08:13:15;;;;;;;;;;;;;;;13.90;45.13;102415.69;5074370;28;19912;-67
2023/05/11 08:15:40;;;;;;;;;;;;;;;14.01;45.51;102411.13;5074392;28;19912;-66
2023/05/11 08:18:06;;;;;;;;;;;;;;;14.04;44.93;102409.00;5073043;28;20017;-68
2023/05/11 08:20:31;;;;;;;;;;;;;;;14.12;44.91;102405.59;5074400;28;19913;-67
2023/05/11 08:22:57;;;;;;;;;;;;;;;14.22;45.20;102412.63;5074515;28;19916;-67
2023/05/11 08:25:22;;;;;;;;;;;;;;;14.27;45.21;102402.31;5074378;28;19917;-68
2023/05/11 08:27:47;;;;;;;;;;;;;;;14.30;45.56;102409.22;5074034;28;19919;-68
2023/05/11 08:30:13;;;;;;;;;;;;;;;14.35;45.51;102398.06;5074110;28;19913;-67
2023/05/11 08:32:38;;;;;;;;;;;;;;;14.35;45.85;102409.63;5074119;28;19913;-67
2023/05/11 08:35:04;;;;;;;;;;;;;;;14.44;46.41;102403.38;5074046;28;19917;-67
2023/05/11 08:37:30;;;;;;;;;;;;;;;14.49;46.37;102405.66;5073881;28;20257;-67
2023/05/11 08:39:55;;;;;;;;;;;;;;;14.52;46.79;102400.00;5073928;28;19977;-67
2023/05/11 08:42:22;;;;;;;;;;;;;;;14.57;46.47;102398.53;5073530;28;19919;-67
2023/05/11 08:44:48;;;;;;;;;;;;;;;14.59;46.83;102402.91;5073658;28;19912;-67
2023/05/11 08:47:14;;;;;;;;;;;;;;;14.64;46.49;102406.00;5073426;28;19939;-67
2023/05/11 08:49:40;;;;;;;;;;;;;;;14.60;46.51;102391.19;5073570;28;19940;-67
2023/05/11 08:52:05;;;;;;;;;;;;;;;14.60;46.36;102396.56;5073455;28;20403;-66
2023/05/11 08:54:30;;;;;;;;;;;;;;;14.61;45.77;102392.88;5073660;28;19913;-67
2023/05/11 08:56:57;;;;;;;;;;;;;;;14.62;46.43;102382.00;5073217;28;19912;-67
2023/05/11 08:59:24;;;;;;;;;;;;;;;14.86;46.22;102400.22;5073437;28;19912;-67
2023/05/11 09:01:51;;;;;;;;;;;;;;;14.92;44.51;102396.94;5073562;28;20288;-67
2023/05/11 09:04:17;;;;;;;;;;;;;;;14.92;44.39;102396.94;5072599;28;19913;-67
2023/05/11 09:06:42;;;;;;;;;;;;;;;14.97;45.32;102389.25;5073427;28;19913;-66
2023/05/11 09:09:08;;;;;;;;;;;;;;;15.08;45.02;102386.38;5073386;28;19920;-67
2023/05/11 09:11:33;;;;;;;;;;;;;;;15.18;43.88;102384.44;5073027;28;19912;-67
2023/05/11 09:13:59;;;;;;;;;;;;;;;15.27;44.16;102384.53;5073373;28;19912;-68
2023/05/11 09:16:24;;;;;;;;;;;;;;;15.35;43.92;102381.94;5073421;28;19913;-66
2023/05/11 09:18:50;;;;;;;;;;;;;;;15.36;42.71;102380.94;5073442;28;19924;-67
2023/05/11 09:21:16;;;;;;;;;;;;;;;15.38;42.67;102376.25;5073233;28;19917;-67
2023/05/11 09:23:43;;;;;;;;;;;;;;;15.45;43.35;102378.16;5073050;28;19921;-68
2023/05/11 09:26:15;;;;;;;;;;;;;;;15.51;42.80;102382.06;5072778;28;20283;-67
2023/05/11 09:28:48;;;;;;;;;;;;;;;15.59;43.50;102376.75;5073063;28;19912;-67
2023/05/11 09:31:33;;;;;;;;;;;;;;;15.73;42.57;102372.69;5071952;28;19916;-67
2023/05/11 09:34:07;;;;;;;;;;;;;;;15.76;42.64;102373.22;5071810;28;19912;-66
2023/05/11 09:36:33;;;;;;;;;;;;;;;15.79;42.42;102362.16;5072665;28;19917;-66
2023/05/11 09:39:01;;;;;;;;;;;;;;;15.85;42.54;102362.50;5073163;28;20257;-66
2023/05/11 09:41:26;;;;;;;;;;;;;;;15.91;42.37;102367.28;5073158;28;19913;-66
2023/05/11 09:43:52;;;;;;;;;;;;;;;15.98;41.45;102369.16;5072786;28;19912;-66
2023/05/11 09:46:20;;;;;;;;;;;;;;;16.00;42.05;102374.38;5071388;28;19919;-68
2023/05/11 09:48:56;;;;;;;;;;;;;;;16.02;41.68;102367.84;5072524;28;20022;-67
2023/05/11 09:51:28;;;;;;;;;;;;;;;16.07;41.24;102367.34;5072792;28;20346;-66
2023/05/11 09:53:54;;;;;;;;;;;;;;;16.11;41.66;102366.03;5072833;28;19916;-66
2023/05/11 09:56:20;;;;;;;;;;;;;;;16.16;41.26;102361.00;5072565;28;19985;-66
2023/05/11 09:58:56;;;;;;;;;;;;;;;16.26;41.85;102367.13;5072478;28;19920;-67
2023/05/11 10:01:29;;;;;;;;;;;;;;;16.32;41.70;102355.72;5072556;28;19912;-67
2023/05/11 10:03:54;;;;;;;;;;;;;;;16.29;41.19;102350.69;5072396;28;19920;-67
2023/05/11 10:06:20;;;;;;;;;;;;;;;16.33;42.12;102360.09;5072236;28;19935;-67
2023/05/11 10:08:46;;;;;;;;;;;;;;;16.39;42.31;102361.28;5072288;28;20221;-67
2023/05/11 10:11:11;;;;;;;;;;;;;;;16.45;42.18;102360.63;5072362;28;19928;-66
2023/05/11 10:13:37;;;;;;;;;;;;;;;16.52;42.36;102356.31;5072462;28;19912;-67
2023/05/11 10:16:04;;;;;;;;;;;;;;;16.57;41.07;102366.59;5071988;28;20131;-68
2023/05/11 10:18:32;;;;;;;;;;;;;;;16.61;41.31;102363.41;5072512;28;20023;-68
2023/05/11 10:20:58;;;;;;;;;;;;;;;16.60;40.29;102352.81;5072782;28;19978;-68
2023/05/11 10:23:27;;;;;;;;;;;;;;;16.63;40.39;102347.09;5072231;28;19912;-70
2023/05/11 10:25:53;;;;;;;;;;;;;;;16.71;39.81;102349.81;5072222;28;19923;-66
2023/05/11 10:28:19;;;;;;;;;;;;;;;16.76;39.14;102349.34;5072118;28;19912;-68
2023/05/11 10:30:46;;;;;;;;;;;;;;;16.74;39.07;102338.75;5071988;28;19916;-69
2023/05/11 10:33:12;;;;;;;;;;;;;;;16.87;38.06;102347.19;5072071;28;19920;-68
2023/05/11 10:35:37;;;;;;;;;;;;;;;16.94;37.89;102345.50;5072253;28;19963;-67
2023/05/11 10:38:03;;;;;;;;;;;;;;;16.91;37.06;102345.84;5072409;28;19956;-68
2023/05/11 10:40:34;;;;;;;;;;;;;;;16.95;36.78;102331.03;5072439;28;20300;-67
2023/05/11 10:43:31;;;;;;;;;;;;;;;17.06;36.93;102334.41;5072282;28;19918;-69
2023/05/11 10:46:07;;;;;;;;;;;;;;;17.16;36.87;102335.94;5081799;28;20030;-65
2023/05/11 10:48:35;;;;;;;;;;;;;;;17.22;36.21;102342.50;5071952;28;19962;-68
2023/05/11 10:51:19;;;;;;;;;;;;;;;17.24;36.48;102329.72;5072136;28;19939;-68
2023/05/11 10:53:56;;;;;;;;;;;;;;;17.33;36.49;102344.84;5070673;28;19924;-67
2023/05/11 10:56:27;;;;;;;;;;;;;;;17.41;36.48;102335.97;5071927;28;19919;-69
2023/05/11 10:58:53;;;;;;;;;;;;;;;17.47;36.99;102337.97;5071772;28;19916;-67
2023/05/11 11:01:21;;;;;;;;;;;;;;;17.50;36.08;102335.78;5070909;28;20372;-70
2023/05/11 11:04:01;;;;;;;;;;;;;;;17.55;35.76;102336.09;5072005;28;19912;-69
2023/05/11 11:06:27;;;;;;;;;;;;;;;17.57;35.60;102336.75;5072155;28;19913;-66
2023/05/11 11:09:00;;;;;;;;;;;;;;;17.59;35.28;102334.75;5072067;28;20271;-68
2023/05/11 11:11:29;;;;;;;;;;;;;;;17.64;35.58;102332.41;5071964;28;19913;-67
2023/05/11 11:13:55;;;;;;;;;;;;;;;17.67;35.28;102330.38;5070507;28;19966;-66
2023/05/11 11:16:23;;;;;;;;;;;;;;;17.63;35.12;102336.06;5071330;28;19912;-68
2023/05/11 11:18:49;;;;;;;;;;;;;;;17.69;35.56;102333.78;5071863;28;20302;-68
2023/05/11 11:21:34;;;;;;;;;;;;;;;17.69;35.53;102333.78;5071934;28;19913;-68
2023/05/11 11:24:02;;;;;;;;;;;;;;;17.71;35.75;102334.44;5070311;28;19912;-71
2023/05/11 11:26:46;;;;;;;;;;;;;;;17.69;35.34;102329.22;5071717;28;20014;-66
2023/05/11 11:29:12;;;;;;;;;;;;;;;17.71;35.18;102326.34;5075128;28;20474;-70
2023/05/11 11:31:37;;;;;;;;;;;;;;;17.71;34.88;102331.75;5075633;28;20019;-68
2023/05/11 11:34:21;;;;;;;;;;;;;;;17.73;34.39;102324.31;5075543;28;19986;-68
2023/05/11 11:37:05;;;;;;;;;;;;;;;17.73;34.63;102329.72;5075428;28;20414;-68
2023/05/11 11:39:52;;;;;;;;;;;;;;;17.72;34.46;102325.34;5075199;28;19913;-70
2023/05/11 11:42:31;;;;;;;;;;;;;;;17.77;34.21;102314.88;5075475;28;19919;-67
2023/05/11 11:45:15;;;;;;;;;;;;;;;17.85;33.62;102318.38;5075299;28;19919;-68
2023/05/11 11:47:40;;;;;;;;;;;;;;;17.89;33.34;102319.72;5074980;28;20025;-68
2023/05/11 11:50:10;;;;;;;;;;;;;;;17.95;33.92;102318.22;5074869;28;19941;-68
2023/05/11 11:52:35;;;;;;;;;;;;;;;17.97;34.16;102310.78;5075065;28;20244;-68
2023/05/11 11:55:02;;;;;;;;;;;;;;;17.91;33.93;102316.84;5075026;28;19919;-68
2023/05/11 11:57:32;;;;;;;;;;;;;;;17.91;33.61;102317.69;5073918;28;19912;-67
2023/05/11 11:59:58;;;;;;;;;;;;;;;18.00;33.48;102310.44;5074733;28;20280;-68
2023/05/11 12:02:25;;;;;;;;;;;;;;;18.11;33.37;102306.50;5074749;28;20018;-67
2023/05/11 12:04:58;;;;;;;;;;;;;;;18.11;33.38;102312.75;5074878;28;19966;-68
2023/05/11 12:07:24;;;;;;;;;;;;;;;18.17;34.07;102314.75;5074736;28;19920;-68
2023/05/11 12:09:51;;;;;;;;;;;;;;;18.18;34.11;102312.88;5074646;28;19958;-67
2023/05/11 12:12:17;;;;;;;;;;;;;;;18.19;33.28;102312.69;5074717;28;19975;-67
2023/05/11 12:14:47;;;;;;;;;;;;;;;18.11;33.41;102318.13;5074463;28;20383;-68
2023/05/11 12:17:14;;;;;;;;;;;;;;;18.12;33.86;102309.03;5074442;28;19923;-69
2023/05/11 12:19:40;;;;;;;;;;;;;;;18.18;33.67;102312.88;5074425;28;19913;-68
2023/05/11 12:22:06;;;;;;;;;;;;;;;18.16;33.22;102315.75;5073379;28;19965;-67
2023/05/11 12:24:32;;;;;;;;;;;;;;;18.11;32.99;102318.13;5074431;28;19919;-68
2023/05/11 12:26:57;;;;;;;;;;;;;;;18.04;33.57;102316.31;5074305;28;19960;-67
2023/05/11 12:29:23;;;;;;;;;;;;;;;18.01;33.75;102306.72;5074360;28;20010;-68
2023/05/11 12:31:48;;;;;;;;;;;;;;;18.02;34.00;102313.81;5074351;28;20390;-67
2023/05/11 12:34:17;;;;;;;;;;;;;;;18.04;33.41;102317.16;5074627;28;20010;-67
2023/05/11 12:36:44;;;;;;;;;;;;;;;17.99;33.82;102314.16;5074492;28;19919;-67